Time;durP1;ratioP1;P1;durP2;ratioP2;P2;SDS_P1;SDS_P2;PMS_P1;PMS_P2;Temp;Humidity;BMP_temperature;BMP_pressure;BME280_temperature;BME280_humidity;BME280_pressure;Samples;Min_cycle;Max_cycle;Signal;HPM_P1;HPM_P2
2022/09/01 00:00:03;;;;;;;;;;;;;;;-144.99;79.78;52162.75;4949953;28;20021;-69
2022/09/01 00:02:30;;;;;;;;;;;;;;;-144.99;79.86;52199.44;4951603;28;19937;-72
2022/09/01 00:04:57;;;;;;;;;;;;;;;-144.99;79.56;52179.06;4949631;28;19927;-71
2022/09/01 00:07:23;;;;;;;;;;;;;;;-144.99;80.18;52170.91;4948542;28;20404;-73
2022/09/01 00:09:53;;;;;;;;;;;;;;;-144.99;80.18;52195.34;4947523;28;21893;-72
2022/09/01 00:12:21;;;;;;;;;;;;;;;-144.99;79.88;52187.19;4951677;28;20041;-71
2022/09/01 00:14:47;;;;;;;;;;;;;;;-144.99;80.43;52193.31;4951005;28;19962;-73
2022/09/01 00:17:14;;;;;;;;;;;;;;;-144.99;80.66;52158.66;4951992;28;20412;-72
2022/09/01 00:19:40;;;;;;;;;;;;;;;-144.99;80.17;52174.97;4952730;28;19927;-74
2022/09/01 00:22:07;;;;;;;;;;;;;;;-144.99;80.24;52203.50;4948762;28;19927;-75
2022/09/01 00:24:34;;;;;;;;;;;;;;;-144.99;80.31;52134.22;4951284;28;20477;-73
2022/09/01 00:27:02;;;;;;;;;;;;;;;-144.99;80.39;52170.91;4950481;28;19933;-71
2022/09/01 00:29:28;;;;;;;;;;;;;;;-144.99;80.36;52187.19;4950285;28;20256;-73
2022/09/01 00:31:55;;;;;;;;;;;;;;;-144.99;80.55;52166.81;4950177;28;19933;-71
2022/09/01 00:34:21;;;;;;;;;;;;;;;-144.99;80.48;52174.97;4951470;28;19930;-71
2022/09/01 00:36:48;;;;;;;;;;;;;;;-144.99;80.54;52142.38;4949342;29;19926;-72
2022/09/01 00:39:15;;;;;;;;;;;;;;;-144.99;80.82;52154.59;4951409;28;19927;-72
2022/09/01 00:41:43;;;;;;;;;;;;;;;-144.99;80.82;52162.75;4950975;28;19926;-71
2022/09/01 00:44:12;;;;;;;;;;;;;;;-144.99;80.59;52179.06;4952528;28;19933;-71
2022/09/01 00:46:40;;;;;;;;;;;;;;;-144.99;80.74;52166.81;4950798;28;19926;-72
2022/09/01 00:49:08;;;;;;;;;;;;;;;-144.99;80.61;52158.66;4952725;28;19926;-71
2022/09/01 00:51:36;;;;;;;;;;;;;;;-144.99;81.13;52170.91;4948537;28;19926;-70
2022/09/01 00:54:03;;;;;;;;;;;;;;;-144.99;81.19;52170.91;4951805;28;20336;-71
2022/09/01 00:56:31;;;;;;;;;;;;;;;-144.99;81.28;52150.53;4951519;28;20509;-72
2022/09/01 00:58:59;;;;;;;;;;;;;;;-144.99;81.05;52203.50;4950756;28;19932;-72
2022/09/01 01:01:27;;;;;;;;;;;;;;;-144.99;80.94;52146.44;4948903;28;19930;-73
2022/09/01 01:03:53;;;;;;;;;;;;;;;-144.99;80.95;52170.91;4946535;28;20058;-71
2022/09/01 01:06:25;;;;;;;;;;;;;;;-144.99;81.27;52183.13;4951670;28;19927;-71
2022/09/01 01:08:56;;;;;;;;;;;;;;;-144.99;81.59;52187.19;4947131;28;19927;-72
2022/09/01 01:11:24;;;;;;;;;;;;;;;-144.99;81.87;52174.97;4950223;28;20287;-72
2022/09/01 01:13:53;;;;;;;;;;;;;;;-144.99;81.89;52177.00;4949895;28;19933;-70
2022/09/01 01:16:20;;;;;;;;;;;;;;;-144.99;81.95;52195.34;4947559;28;20014;-71
2022/09/01 01:18:48;;;;;;;;;;;;;;;-144.99;82.02;52174.97;4950568;28;20033;-71
2022/09/01 01:24:06;;;;;;;;;;;;;;;-144.99;82.72;52197.41;4951019;28;19985;-71
2022/09/01 01:26:34;;;;;;;;;;;;;;;-144.99;83.45;52154.59;4944168;28;20601;-71
2022/09/01 01:29:02;;;;;;;;;;;;;;;-144.99;83.58;52183.13;4951622;28;19927;-71
2022/09/01 01:31:29;;;;;;;;;;;;;;;-144.99;84.34;52189.25;4945093;29;20520;-70
2022/09/01 01:33:57;;;;;;;;;;;;;;;-144.99;84.29;52199.44;4950816;28;20018;-72
2022/09/01 01:36:31;;;;;;;;;;;;;;;-144.99;84.79;52162.75;4945779;28;19977;-72
2022/09/01 01:39:02;;;;;;;;;;;;;;;-144.99;85.16;52195.34;4951933;28;19934;-72
2022/09/01 01:41:28;;;;;;;;;;;;;;;-144.99;85.61;52158.66;4947918;28;19973;-69
2022/09/01 01:43:57;;;;;;;;;;;;;;;-144.99;86.35;52201.47;4951143;28;19936;-73
2022/09/01 01:46:24;;;;;;;;;;;;;;;-144.99;86.70;52150.53;4945513;28;20197;-73
2022/09/01 01:48:52;;;;;;;;;;;;;;;-144.99;87.11;52195.34;4950451;28;19953;-72
2022/09/01 01:51:20;;;;;;;;;;;;;;;-144.99;87.49;52201.47;4945922;28;19926;-71
2022/09/01 01:53:46;;;;;;;;;;;;;;;-144.99;87.78;52179.06;4947141;28;19931;-72
2022/09/01 01:56:13;;;;;;;;;;;;;;;-144.99;88.23;52199.44;4944199;28;19938;-70
2022/09/01 01:58:40;;;;;;;;;;;;;;;-144.99;88.52;52197.41;4947945;28;19937;-72
2022/09/01 02:01:09;;;;;;;;;;;;;;;-144.99;88.86;52197.41;4944558;28;20311;-71
2022/09/01 02:03:37;;;;;;;;;;;;;;;-144.99;89.19;52181.09;4950222;28;19969;-72
2022/09/01 02:06:07;;;;;;;;;;;;;;;-144.99;89.67;52162.75;4952250;28;19926;-71
2022/09/01 02:08:34;;;;;;;;;;;;;;;-144.99;89.97;52199.44;4949297;28;19926;-71
2022/09/01 02:11:01;;;;;;;;;;;;;;;-144.99;90.07;52166.81;4953214;28;20362;-70
2022/09/01 02:13:29;;;;;;;;;;;;;;;-144.99;90.46;52158.66;4948609;28;19931;-71
2022/09/01 02:15:57;;;;;;;;;;;;;;;-144.99;90.85;52215.75;4952973;28;19937;-71
2022/09/01 02:18:27;;;;;;;;;;;;;;;-144.99;90.96;52177.00;4954054;28;20032;-71
2022/09/01 02:20:54;;;;;;;;;;;;;;;-144.99;91.31;52191.28;4954742;28;20029;-72
2022/09/01 02:23:23;;;;;;;;;;;;;;;-144.99;91.56;52170.91;4954816;28;19926;-72
2022/09/01 02:25:52;;;;;;;;;;;;;;;-144.99;91.55;52183.13;4951245;29;19927;-71
2022/09/01 02:28:18;;;;;;;;;;;;;;;-144.99;91.75;52170.91;4955184;28;19926;-72
2022/09/01 02:30:45;;;;;;;;;;;;;;;-144.99;92.11;52191.28;4953799;28;19926;-71
2022/09/01 02:33:17;;;;;;;;;;;;;;;-144.99;92.13;52209.63;4955133;28;20425;-71
2022/09/01 02:35:45;;;;;;;;;;;;;;;-144.99;92.53;52185.16;4950040;28;20417;-72
2022/09/01 02:38:12;;;;;;;;;;;;;;;-144.99;92.76;52187.19;4954128;28;19933;-71
2022/09/01 02:40:43;;;;;;;;;;;;;;;-144.99;93.07;52158.66;4954028;28;19986;-72
2022/09/01 02:43:10;;;;;;;;;;;;;;;-144.99;93.18;52199.44;4954127;28;20466;-70
2022/09/01 02:45:37;;;;;;;;;;;;;;;-144.99;93.21;52217.78;4954038;28;19933;-72
2022/09/01 02:48:06;;;;;;;;;;;;;;;-144.99;93.04;52191.28;4954426;28;19926;-74
2022/09/01 02:50:33;;;;;;;;;;;;;;;-144.99;93.23;52191.28;4954394;28;19926;-73
2022/09/01 02:53:01;;;;;;;;;;;;;;;-144.99;93.10;52195.34;4955335;28;19927;-71
2022/09/01 02:55:27;;;;;;;;;;;;;;;-144.99;93.50;52179.06;4953563;28;20002;-72
2022/09/01 02:57:55;;;;;;;;;;;;;;;-144.99;93.68;52187.19;4952340;28;19934;-71
2022/09/01 03:00:27;;;;;;;;;;;;;;;-144.99;93.87;52158.66;4946097;28;19933;-71
2022/09/01 03:02:55;;;;;;;;;;;;;;;-144.99;93.97;52183.13;4952171;28;19937;-70
2022/09/01 03:05:24;;;;;;;;;;;;;;;-144.99;94.05;52213.69;4953090;28;19934;-70
2022/09/01 03:07:55;;;;;;;;;;;;;;;-144.99;94.16;52174.97;4952768;28;20409;-71
2022/09/01 03:10:25;;;;;;;;;;;;;;;-144.99;94.24;52191.28;4951221;28;19934;-70
2022/09/01 03:12:52;;;;;;;;;;;;;;;-144.99;94.19;52174.97;4952716;28;19927;-70
2022/09/01 03:15:19;;;;;;;;;;;;;;;-144.99;94.51;52183.13;4950197;28;19946;-69
2022/09/01 03:17:45;;;;;;;;;;;;;;;-144.99;94.97;52174.97;4948239;28;19930;-69
2022/09/01 03:20:12;;;;;;;;;;;;;;;-144.99;95.09;52189.25;5002363;22;20545;-75
2022/09/01 03:22:38;;;;;;;;;;;;;;;-144.99;94.94;52207.59;4996552;28;19925;-74
2022/09/01 03:25:05;;;;;;;;;;;;;;;-144.99;95.08;52183.13;5003257;28;19926;-74
2022/09/01 03:27:32;;;;;;;;;;;;;;;-144.99;95.46;52166.81;4989511;28;20012;-75
2022/09/01 03:29:59;;;;;;;;;;;;;;;-144.99;95.75;52191.28;4981831;28;20025;-75
2022/09/01 03:32:25;;;;;;;;;;;;;;;-144.99;96.15;52191.28;4983874;28;20419;-74
2022/09/01 03:34:51;;;;;;;;;;;;;;;-144.99;96.64;52219.81;4989465;28;19926;-73
2022/09/01 03:37:19;;;;;;;;;;;;;;;-144.99;97.03;52183.13;4983797;28;20461;-75
2022/09/01 03:39:46;;;;;;;;;;;;;;;-144.99;97.26;52158.66;4979687;28;19926;-75
2022/09/01 03:42:18;;;;;;;;;;;;;;;-144.99;97.16;52227.97;4989073;28;19934;-75
2022/09/01 03:44:48;;;;;;;;;;;;;;;-144.99;97.11;52195.34;4984029;28;19926;-76
2022/09/01 03:47:14;;;;;;;;;;;;;;;-144.99;97.50;52191.28;4987317;28;20000;-75
2022/09/01 03:49:42;;;;;;;;;;;;;;;-144.99;97.34;52215.75;4982400;28;20352;-73
2022/09/01 03:52:10;;;;;;;;;;;;;;;-144.99;97.38;52168.84;4983996;28;20329;-76
2022/09/01 03:54:37;;;;;;;;;;;;;;;-144.99;96.98;52170.91;5005660;28;20064;-76
2022/09/01 03:57:05;;;;;;;;;;;;;;;-144.99;96.31;52158.66;5000394;28;20579;-76
2022/09/01 03:59:32;;;;;;;;;;;;;;;-144.99;95.79;52197.41;4986052;28;19930;-76
2022/09/01 04:02:01;;;;;;;;;;;;;;;-144.99;95.88;52174.97;4981886;28;20101;-75
2022/09/01 04:04:30;;;;;;;;;;;;;;;-144.99;96.23;52172.94;4986178;28;19926;-75
2022/09/01 04:06:57;;;;;;;;;;;;;;;-144.99;96.10;52195.34;4979767;28;19933;-75
2022/09/01 04:09:23;;;;;;;;;;;;;;;-144.99;96.32;52195.34;4989082;28;19960;-76
2022/09/01 04:11:50;;;;;;;;;;;;;;;-144.99;96.77;52179.06;4981732;28;20421;-75
2022/09/01 04:14:16;;;;;;;;;;;;;;;-144.99;97.03;52191.28;4989857;28;19957;-77
2022/09/01 04:19:29;;;;;;;;;;;;;;;-144.99;96.80;52146.44;4985060;28;19972;-76
2022/09/01 04:21:58;;;;;;;;;;;;;;;-144.99;96.07;52195.34;4988714;28;20437;-77
2022/09/01 04:24:27;;;;;;;;;;;;;;;-144.99;95.81;52183.13;4987800;28;20010;-74
2022/09/01 04:26:54;;;;;;;;;;;;;;;-144.99;95.16;52187.19;4981748;28;20014;-76
2022/09/01 04:29:25;;;;;;;;;;;;;;;-144.99;94.25;52191.28;4986115;28;19926;-77
2022/09/01 04:31:52;;;;;;;;;;;;;;;-144.99;93.57;52183.13;4985375;28;19948;-77
2022/09/01 04:34:19;;;;;;;;;;;;;;;-144.99;93.28;52203.50;4982167;28;20464;-76
2022/09/01 04:36:47;;;;;;;;;;;;;;;-144.99;93.33;52195.34;4990490;28;20544;-76
2022/09/01 04:39:13;;;;;;;;;;;;;;;-144.99;93.31;52195.34;4990369;28;20448;-77
2022/09/01 04:41:41;;;;;;;;;;;;;;;-144.99;93.68;52170.91;4991082;28;20424;-77
2022/09/01 04:44:08;;;;;;;;;;;;;;;-144.99;93.85;52187.19;4990876;28;19968;-77
2022/09/01 04:46:35;;;;;;;;;;;;;;;-144.99;93.71;52195.34;4998604;28;19926;-76
2022/09/01 04:49:05;;;;;;;;;;;;;;;-144.99;94.08;52203.50;4991440;28;19989;-79
2022/09/01 04:51:32;;;;;;;;;;;;;;;-144.99;94.27;52174.97;4990594;28;20500;-79
2022/09/01 04:54:02;;;;;;;;;;;;;;;-144.99;94.47;52195.34;4991901;28;19937;-79
2022/09/01 04:56:35;;;;;;;;;;;;;;;-144.99;94.88;52191.28;4992164;28;20043;-80
2022/09/01 04:59:05;;;;;;;;;;;;;;;-144.99;94.89;52179.06;4995286;28;20313;-79
2022/09/01 05:01:41;;;;;;;;;;;;;;;-144.99;94.92;52174.97;4994610;28;20016;-80
2022/09/01 05:04:08;;;;;;;;;;;;;;;-144.99;94.67;52193.31;4996289;28;19980;-80
2022/09/01 05:06:38;;;;;;;;;;;;;;;-144.99;94.42;52203.50;4995306;28;19937;-81
2022/09/01 05:09:08;;;;;;;;;;;;;;;-144.99;94.12;52158.66;4996432;28;19926;-80
2022/09/01 05:11:36;;;;;;;;;;;;;;;-144.99;93.61;52150.53;4997126;28;19930;-82
2022/09/01 05:14:03;;;;;;;;;;;;;;;-144.99;93.32;52193.31;4997741;28;19925;-80
2022/09/01 05:16:31;;;;;;;;;;;;;;;-144.99;93.29;52158.66;4996315;28;20029;-81
2022/09/01 05:18:57;;;;;;;;;;;;;;;-144.99;93.16;52170.91;4985842;28;19926;-80
2022/09/01 05:21:27;;;;;;;;;;;;;;;-144.99;93.00;52170.91;4994530;28;19944;-81
2022/09/01 05:23:54;;;;;;;;;;;;;;;-144.99;92.89;52146.44;4995360;28;20002;-80
2022/09/01 05:26:23;;;;;;;;;;;;;;;-144.99;92.57;52158.66;4995335;28;19972;-80
2022/09/01 05:28:52;;;;;;;;;;;;;;;-144.99;91.97;52195.34;4996009;28;19957;-80
2022/09/01 05:31:19;;;;;;;;;;;;;;;-144.99;91.52;52158.66;4995113;28;19991;-80
2022/09/01 05:33:47;;;;;;;;;;;;;;;-144.99;90.91;52142.38;4992314;28;20345;-80
2022/09/01 05:36:14;;;;;;;;;;;;;;;-144.99;90.44;52113.84;4996079;28;19957;-80
2022/09/01 05:38:41;;;;;;;;;;;;;;;-144.99;90.71;52156.63;5005042;28;19926;-77
2022/09/01 05:41:08;;;;;;;;;;;;;;;-144.99;90.34;52138.28;4997168;28;20490;-81
2022/09/01 05:43:37;;;;;;;;;;;;;;;-144.99;89.79;52174.97;4993108;28;20455;-80
2022/09/01 05:46:07;;;;;;;;;;;;;;;-144.99;89.12;52152.56;4995269;28;19930;-82
2022/09/01 05:48:38;;;;;;;;;;;;;;;-144.99;88.95;52179.06;4994944;28;20428;-80
2022/09/01 05:51:05;;;;;;;;;;;;;;;-144.99;88.65;52162.75;4995659;28;19925;-81
2022/09/01 05:53:32;;;;;;;;;;;;;;;-144.99;87.94;52158.66;4995488;28;19972;-82
2022/09/01 05:56:05;;;;;;;;;;;;;;;-144.99;87.40;52146.44;4995715;28;19965;-81
2022/09/01 05:58:33;;;;;;;;;;;;;;;-144.99;86.78;52146.44;5014509;28;20412;-80
2022/09/01 06:01:01;;;;;;;;;;;;;;;-144.99;86.28;52154.59;4999532;28;20017;-80
2022/09/01 06:03:29;;;;;;;;;;;;;;;-144.99;85.49;52121.97;4994763;28;20009;-81
2022/09/01 06:05:57;;;;;;;;;;;;;;;-144.99;84.43;52121.97;4995285;28;19989;-82
2022/09/01 06:08:27;;;;;;;;;;;;;;;-144.99;84.46;52136.25;4989962;28;19926;-81
2022/09/01 06:10:54;;;;;;;;;;;;;;;-144.99;83.31;52154.59;4998572;28;19937;-80
2022/09/01 06:13:21;;;;;;;;;;;;;;;-144.99;83.38;52158.66;4997219;28;19926;-84
2022/09/01 06:15:48;;;;;;;;;;;;;;;-144.99;82.35;52160.72;4993640;28;19976;-81
2022/09/01 06:18:17;;;;;;;;;;;;;;;-144.99;81.65;52146.44;4995070;28;19925;-80
2022/09/01 06:20:45;;;;;;;;;;;;;;;-144.99;80.87;52105.69;4995126;28;19936;-82
2022/09/01 06:23:16;;;;;;;;;;;;;;;-144.99;80.10;52134.22;4995688;28;19926;-81
2022/09/01 06:25:44;;;;;;;;;;;;;;;-144.99;79.26;52142.38;4993140;28;20036;-80
2022/09/01 06:28:11;;;;;;;;;;;;;;;-144.99;78.92;52117.91;4995353;28;19969;-81
2022/09/01 06:30:38;;;;;;;;;;;;;;;-144.99;78.36;52126.06;4993749;28;20006;-81
2022/09/01 06:33:06;;;;;;;;;;;;;;;-144.99;77.47;52130.13;4993667;28;19972;-82
2022/09/01 06:35:35;;;;;;;;;;;;;;;-144.99;76.69;52113.84;4995227;28;19926;-81
2022/09/01 06:38:03;;;;;;;;;;;;;;;-144.99;76.04;52115.88;4996168;28;19968;-81
2022/09/01 06:40:31;;;;;;;;;;;;;;;-144.99;75.59;52109.75;4998120;28;19965;-84
2022/09/01 06:42:59;;;;;;;;;;;;;;;-144.99;75.02;52089.38;5016243;28;20020;-84
2022/09/01 06:45:26;;;;;;;;;;;;;;;-144.99;73.47;52093.44;5003420;28;20443;-80
2022/09/01 06:47:52;;;;;;;;;;;;;;;-144.99;72.24;52130.13;5001405;28;20013;-81
2022/09/01 06:50:20;;;;;;;;;;;;;;;-144.99;71.60;52111.78;4997970;28;20463;-80
2022/09/01 06:53:07;;;;;;;;;;;;;;;-144.99;71.40;52101.59;4997636;28;20537;-80
2022/09/01 06:55:36;;;;;;;;;;;;;;;-144.99;70.78;52134.22;4998914;28;20013;-82
2022/09/01 06:58:04;;;;;;;;;;;;;;;-144.99;70.07;52101.59;4997647;28;19930;-81
2022/09/01 07:00:30;;;;;;;;;;;;;;;-144.99;68.66;52117.91;4998412;28;19926;-82
2022/09/01 07:02:58;;;;;;;;;;;;;;;-144.99;67.91;52093.44;4990759;28;20025;-82
2022/09/01 07:05:25;;;;;;;;;;;;;;;-144.99;68.02;52075.09;4997311;28;20513;-81
2022/09/01 07:07:54;;;;;;;;;;;;;;;-144.99;67.30;52097.53;4998097;28;19930;-81
2022/09/01 07:10:21;;;;;;;;;;;;;;;-144.99;66.80;52117.91;4998811;28;19954;-81
2022/09/01 07:12:48;;;;;;;;;;;;;;;-144.99;65.74;52064.91;4997623;28;19929;-81
2022/09/01 07:15:16;;;;;;;;;;;;;;;-144.99;65.27;52093.44;4997222;28;20391;-81
2022/09/01 07:17:45;;;;;;;;;;;;;;;-144.99;65.25;52093.44;4995799;28;19936;-80
2022/09/01 07:20:11;;;;;;;;;;;;;;;-144.99;63.75;52089.38;4992673;28;19949;-82
2022/09/01 07:22:38;;;;;;;;;;;;;;;-144.99;61.84;52069.00;5002959;28;19941;-83
2022/09/01 07:25:06;;;;;;;;;;;;;;;-144.99;61.11;52152.56;4999383;28;20072;-81
2022/09/01 07:27:33;;;;;;;;;;;;;;;-144.99;60.17;52113.84;4999109;28;19925;-83
2022/09/01 07:30:00;;;;;;;;;;;;;;;-144.99;60.21;52101.59;4987545;28;20378;-83
2022/09/01 07:32:29;;;;;;;;;;;;;;;-144.99;60.57;52064.91;4997300;28;19958;-80
2022/09/01 07:34:55;;;;;;;;;;;;;;;-144.99;60.19;52077.16;5003373;28;19926;-79
2022/09/01 07:37:22;;;;;;;;;;;;;;;-144.99;59.91;52107.72;4999772;28;19949;-81
2022/09/01 07:39:49;;;;;;;;;;;;;;;-144.99;59.16;52089.38;4994633;28;19925;-82
2022/09/01 07:42:18;;;;;;;;;;;;;;;-144.99;57.03;52087.34;5000025;28;19968;-81
2022/09/01 07:44:44;;;;;;;;;;;;;;;-144.99;57.06;52056.78;4998516;28;19973;-81
2022/09/01 07:47:14;;;;;;;;;;;;;;;-144.99;57.31;52060.84;4998694;28;19930;-82
2022/09/01 07:49:40;;;;;;;;;;;;;;;-144.99;56.88;52081.22;4998124;28;19926;-82
2022/09/01 07:52:07;;;;;;;;;;;;;;;-144.99;57.12;52101.59;4990977;28;19993;-81
2022/09/01 07:54:36;;;;;;;;;;;;;;;-144.99;56.54;52060.84;4982027;28;20426;-81
2022/09/01 07:57:02;;;;;;;;;;;;;;;-144.99;56.13;52093.44;4998893;28;19952;-82
2022/09/01 07:59:32;;;;;;;;;;;;;;;-144.99;55.57;52081.22;4998875;28;19969;-82
2022/09/01 08:01:59;;;;;;;;;;;;;;;-144.99;54.15;52036.38;4998038;28;20313;-81
2022/09/01 08:04:26;;;;;;;;;;;;;;;-144.99;53.95;52024.16;4998561;28;20012;-80
2022/09/01 08:06:54;;;;;;;;;;;;;;;-144.99;52.54;52089.38;4994815;28;19926;-81
2022/09/01 08:09:21;;;;;;;;;;;;;;;-144.99;52.55;52064.91;4996395;28;19944;-82
2022/09/01 08:11:47;;;;;;;;;;;;;;;-144.99;52.04;52085.31;4997627;28;19964;-82
2022/09/01 08:14:14;;;;;;;;;;;;;;;-144.99;51.21;52089.38;4998675;28;20033;-83
2022/09/01 08:16:41;;;;;;;;;;;;;;;-144.99;51.17;52048.63;4998321;28;19993;-82
2022/09/01 08:19:08;;;;;;;;;;;;;;;-144.99;50.58;52073.06;4998323;28;20464;-82
2022/09/01 08:21:34;;;;;;;;;;;;;;;-144.99;50.12;52085.31;4998989;28;19930;-79
2022/09/01 08:24:01;;;;;;;;;;;;;;;-144.99;49.37;52062.88;5005987;28;19933;-82
2022/09/01 08:26:28;;;;;;;;;;;;;;;-144.99;47.70;52075.09;5000172;28;19925;-83
2022/09/01 08:28:54;;;;;;;;;;;;;;;-144.99;46.55;52020.09;4994312;28;19926;-82
2022/09/01 08:31:22;;;;;;;;;;;;;;;-144.99;45.68;52062.88;4991812;28;19993;-83
2022/09/01 08:33:51;;;;;;;;;;;;;;;-144.99;44.61;52032.31;4996654;28;19929;-83
2022/09/01 08:36:17;;;;;;;;;;;;;;;-144.99;45.03;52024.16;4998605;28;20309;-82
2022/09/01 08:38:44;;;;;;;;;;;;;;;-144.99;45.15;52036.38;5001713;28;19926;-84
2022/09/01 08:41:15;;;;;;;;;;;;;;;-144.99;44.69;52048.63;4994229;28;20013;-83
2022/09/01 08:43:50;;;;;;;;;;;;;;;-144.99;43.85;52060.84;5007393;28;19976;-83
2022/09/01 08:46:19;;;;;;;;;;;;;;;-144.99;43.38;52024.16;4997721;28;19972;-84
2022/09/01 08:48:47;;;;;;;;;;;;;;;-144.99;43.12;52038.44;4998744;28;20435;-81
2022/09/01 08:51:19;;;;;;;;;;;;;;;-144.99;42.54;52042.50;4997543;28;19997;-82
2022/09/01 08:53:49;;;;;;;;;;;;;;;-144.99;41.50;51987.47;4998264;28;20028;-82
2022/09/01 08:56:18;;;;;;;;;;;;;;;-144.99;41.22;52032.31;4997773;28;20028;-82
2022/09/01 08:58:44;;;;;;;;;;;;;;;-144.99;40.75;52046.56;4997810;28;19936;-83
2022/09/01 09:01:15;;;;;;;;;;;;;;;-144.99;40.77;51979.31;4998160;28;19930;-83
2022/09/01 09:03:46;;;;;;;;;;;;;;;-144.99;40.45;51975.25;4999598;28;19962;-83
2022/09/01 09:06:17;;;;;;;;;;;;;;;-144.99;40.40;52024.16;4998171;28;19993;-81
2022/09/01 09:08:51;;;;;;;;;;;;;;;-144.99;39.65;52007.84;4999338;28;19930;-82
2022/09/01 09:11:26;;;;;;;;;;;;;;;-144.99;39.26;51995.63;4998670;28;20385;-83
2022/09/01 09:13:58;;;;;;;;;;;;;;;-144.99;38.75;51987.47;4998170;28;19965;-83
2022/09/01 09:16:26;;;;;;;;;;;;;;;-144.99;37.66;51983.41;4998657;28;19926;-81
2022/09/01 09:18:55;;;;;;;;;;;;;;;-144.99;36.43;52001.75;4998797;28;19925;-83
2022/09/01 09:21:25;;;;;;;;;;;;;;;-144.99;36.80;52026.19;4998877;28;19957;-83
2022/09/01 09:23:55;;;;;;;;;;;;;;;-144.99;35.99;51963.03;5022735;23;20359;-76
2022/09/01 09:26:21;;;;;;;;;;;;;;;-144.99;36.54;51987.47;5006328;28;19933;-76
2022/09/01 09:28:48;;;;;;;;;;;;;;;-144.99;36.30;51942.63;5008407;28;19925;-77
2022/09/01 09:31:29;;;;;;;;;;;;;;;-144.99;36.37;52005.81;5005762;28;19926;-77
2022/09/01 09:33:56;;;;;;;;;;;;;;;-144.99;35.83;51952.81;5009763;28;19957;-76
2022/09/01 09:36:30;;;;;;;;;;;;;;;-144.99;35.15;51975.25;5011324;28;20020;-76
2022/09/01 09:39:04;;;;;;;;;;;;;;;-144.99;35.11;51938.56;5010980;28;19932;-75
2022/09/01 09:41:31;;;;;;;;;;;;;;;-144.99;35.38;51975.25;5011344;28;19926;-76
2022/09/01 09:44:00;;;;;;;;;;;;;;;-144.99;35.19;51942.63;5013771;28;19925;-76
2022/09/01 09:46:28;;;;;;;;;;;;;;;-144.99;35.22;51979.31;5015180;28;19968;-75
2022/09/01 09:49:06;;;;;;;;;;;;;;;-144.99;34.02;51946.72;5014353;28;19926;-76
2022/09/01 09:51:35;;;;;;;;;;;;;;;-144.99;34.31;51950.78;5001120;28;20028;-77
2022/09/01 09:54:11;;;;;;;;;;;;;;;-144.99;33.93;51975.25;5011273;28;20361;-77
2022/09/01 09:56:40;;;;;;;;;;;;;;;-144.99;34.30;51958.94;5010771;28;19925;-76
2022/09/01 09:59:16;;;;;;;;;;;;;;;-144.99;34.19;51938.56;5010771;28;20040;-77
2022/09/01 10:01:43;;;;;;;;;;;;;;;-144.99;34.08;51938.56;5010942;28;20406;-76
2022/09/01 10:04:09;;;;;;;;;;;;;;;-144.99;33.48;51950.78;5010983;28;19933;-76
2022/09/01 10:06:40;;;;;;;;;;;;;;;-144.99;33.58;51954.88;5010384;28;19926;-76
2022/09/01 10:09:08;;;;;;;;;;;;;;;-144.99;33.71;51922.25;5006608;28;19983;-77
2022/09/01 10:11:37;;;;;;;;;;;;;;;-144.99;33.64;51905.97;5011193;28;20320;-76
2022/09/01 10:14:06;;;;;;;;;;;;;;;-144.99;33.55;51885.56;5010536;28;19933;-76
2022/09/01 10:16:34;;;;;;;;;;;;;;;-144.99;32.96;51865.19;5010396;28;19932;-76
2022/09/01 10:19:01;;;;;;;;;;;;;;;-144.99;32.55;51914.09;5010711;28;19932;-78
2022/09/01 10:21:30;;;;;;;;;;;;;;;-144.99;31.83;51840.75;5010826;28;19926;-76
2022/09/01 10:23:58;;;;;;;;;;;;;;;-144.99;31.61;51852.97;5009741;28;19948;-77
2022/09/01 10:26:26;;;;;;;;;;;;;;;-144.99;31.17;51840.75;5007931;28;19932;-77
2022/09/01 10:28:54;;;;;;;;;;;;;;;-144.99;31.29;51901.88;5001720;28;19925;-76
2022/09/01 10:31:21;;;;;;;;;;;;;;;-144.99;31.51;51852.97;5008092;28;19965;-76
2022/09/01 10:33:48;;;;;;;;;;;;;;;-144.99;31.44;51848.91;5013312;28;20016;-76
2022/09/01 10:36:15;;;;;;;;;;;;;;;-144.99;31.36;51795.91;5014908;28;19925;-76
2022/09/01 10:38:42;;;;;;;;;;;;;;;-144.99;30.86;51795.91;5014743;28;19926;-76
2022/09/01 10:41:10;;;;;;;;;;;;;;;-144.99;30.38;51783.69;5010844;28;20004;-77
2022/09/01 10:43:40;;;;;;;;;;;;;;;-144.99;30.68;51791.84;5014671;28;19925;-76
2022/09/01 10:46:25;;;;;;;;;;;;;;;-144.99;30.06;51726.63;5023849;28;19937;-77
2022/09/01 10:48:52;;;;;;;;;;;;;;;-144.99;29.33;51730.69;4992141;28;19925;-77
2022/09/01 10:51:37;;;;;;;;;;;;;;;-144.99;29.24;51718.47;5000234;28;19925;-77
2022/09/01 10:54:04;;;;;;;;;;;;;;;-144.99;28.74;51726.63;5014582;28;19929;-78
2022/09/01 10:56:39;;;;;;;;;;;;;;;-144.99;29.00;51714.41;5015662;28;19926;-77
2022/09/01 10:59:07;;;;;;;;;;;;;;;-144.99;28.43;51714.41;5014059;28;20462;-78
2022/09/01 11:01:52;;;;;;;;;;;;;;;-144.99;28.10;51716.44;5013790;28;19929;-76
2022/09/01 11:04:19;;;;;;;;;;;;;;;-144.99;27.82;51669.56;5013983;28;19933;-77
2022/09/01 11:06:54;;;;;;;;;;;;;;;-144.99;27.67;51710.31;5013946;28;19925;-76
2022/09/01 11:09:25;;;;;;;;;;;;;;;-144.99;27.49;51653.25;5001830;28;20339;-77
2022/09/01 11:12:02;;;;;;;;;;;;;;;-144.99;27.73;51820.38;5014931;28;19933;-77
2022/09/01 11:14:34;;;;;;;;;;;;;;;-144.99;27.60;51848.91;5014847;28;19925;-77
2022/09/01 11:17:14;;;;;;;;;;;;;;;-144.99;28.07;51893.72;5013496;28;19925;-77
2022/09/01 11:19:42;;;;;;;;;;;;;;;-144.99;28.65;51922.25;5014944;28;20076;-77
2022/09/01 11:22:18;;;;;;;;;;;;;;;-144.99;29.08;51960.97;5014367;28;19984;-78
2022/09/01 11:24:52;;;;;;;;;;;;;;;-144.99;29.30;51987.47;5008082;28;19929;-78
2022/09/01 11:27:38;;;;;;;;;;;;;;;-144.99;30.36;52020.09;5018720;28;19925;-79
2022/09/01 11:30:09;;;;;;;;;;;;;;;-144.99;30.99;52024.16;5017810;28;19979;-77
2022/09/01 11:32:36;;;;;;;;;;;;;;;-144.99;31.21;51875.38;5006847;28;19965;-78
2022/09/01 11:35:05;;;;;;;;;;;;;;;-144.99;30.58;51828.50;5013187;28;19940;-76
2022/09/01 11:37:32;;;;;;;;;;;;;;;-144.99;29.46;51808.13;5014048;28;20361;-76
2022/09/01 11:40:00;;;;;;;;;;;;;;;-144.99;29.03;51775.53;5014062;28;19926;-76
2022/09/01 11:42:28;;;;;;;;;;;;;;;-144.99;28.58;51804.06;5011596;28;19926;-76
2022/09/01 11:44:57;;;;;;;;;;;;;;;-144.99;28.03;51755.16;5014487;28;20024;-76
2022/09/01 11:47:27;;;;;;;;;;;;;;;-144.99;27.83;51730.69;5014415;28;19952;-77
2022/09/01 11:49:55;;;;;;;;;;;;;;;-144.99;27.81;51712.34;5014262;28;20028;-77
2022/09/01 11:52:23;;;;;;;;;;;;;;;-144.99;27.64;51696.06;5003323;28;19926;-77
2022/09/01 11:54:50;;;;;;;;;;;;;;;-144.99;27.47;51698.09;5013754;28;19931;-77
2022/09/01 11:57:17;;;;;;;;;;;;;;;-144.99;27.24;51677.72;5019050;28;20008;-77
2022/09/01 11:59:44;;;;;;;;;;;;;;;-144.99;27.54;51830.56;5022454;28;19987;-77
2022/09/01 12:02:16;;;;;;;;;;;;;;;-144.99;28.39;51926.34;5021347;28;20388;-77
2022/09/01 12:04:45;;;;;;;;;;;;;;;-144.99;28.96;51958.94;5021080;28;19941;-77
2022/09/01 12:07:13;;;;;;;;;;;;;;;-144.99;29.65;51828.50;5022389;28;19996;-76
2022/09/01 12:09:42;;;;;;;;;;;;;;;-144.99;29.34;51804.06;5017777;28;19960;-77
2022/09/01 12:12:26;;;;;;;;;;;;;;;-144.99;29.15;51783.69;5013942;28;20431;-77
2022/09/01 12:14:55;;;;;;;;;;;;;;;-144.99;29.17;51816.28;5004233;28;20032;-79
2022/09/01 12:17:22;;;;;;;;;;;;;;;-144.99;29.09;51804.06;5013351;28;20012;-77
2022/09/01 12:19:50;;;;;;;;;;;;;;;-144.99;29.41;51877.44;5015295;28;19961;-78
2022/09/01 12:22:18;;;;;;;;;;;;;;;-144.99;29.31;51834.63;5014714;28;19980;-77
2022/09/01 12:24:45;;;;;;;;;;;;;;;-144.99;29.21;51779.59;5018424;28;19980;-78
2022/09/01 12:27:12;;;;;;;;;;;;;;;-144.99;29.67;51832.59;5014077;28;20427;-78
2022/09/01 12:29:39;;;;;;;;;;;;;;;-144.99;29.48;51804.06;5015605;28;19940;-78
2022/09/01 12:32:06;;;;;;;;;;;;;;;-144.99;29.15;51877.44;5005625;28;19936;-77
2022/09/01 12:34:36;;;;;;;;;;;;;;;-144.99;29.55;51799.97;5015181;28;20459;-78
2022/09/01 12:37:06;;;;;;;;;;;;;;;-144.99;29.08;51889.66;5017848;28;19960;-78
2022/09/01 12:39:34;;;;;;;;;;;;;;;-144.99;29.54;51930.41;5009267;28;20380;-76